sensor_id;sensor_type;location;lat;lon;timestamp;pressure;altitude;pressure_sealevel;temperature;humidity
53546;BME280;39432;51.902;10.844;2023-04-19T00:02:08;100671.63;;;9.16;100.00
53546;BME280;39432;51.902;10.844;2023-04-19T00:04:39;100678.78;;;9.67;100.00
53546;BME280;39432;51.902;10.844;2023-04-19T00:07:10;100688.06;;;9.10;100.00
53546;BME280;39432;51.902;10.844;2023-04-19T00:09:40;100692.78;;;8.64;100.00
53546;BME280;39432;51.902;10.844;2023-04-19T00:12:12;100679.50;;;8.75;100.00
53546;BME280;39432;51.902;10.844;2023-04-19T00:14:42;100681.59;;;8.73;100.00
53546;BME280;39432;51.902;10.844;2023-04-19T00:17:12;100691.81;;;8.52;100.00
53546;BME280;39432;51.902;10.844;2023-04-19T00:19:42;100689.84;;;8.01;100.00
53546;BME280;39432;51.902;10.844;2023-04-19T00:22:11;100692.00;;;7.86;100.00
53546;BME280;39432;51.902;10.844;2023-04-19T00:24:41;100688.44;;;7.79;100.00
53546;BME280;39432;51.902;10.844;2023-04-19T00:27:14;100680.50;;;7.57;100.00
53546;BME280;39432;51.902;10.844;2023-04-19T00:29:43;100679.47;;;7.52;100.00
53546;BME280;39432;51.902;10.844;2023-04-19T00:32:14;100684.94;;;7.32;100.00
53546;BME280;39432;51.902;10.844;2023-04-19T00:34:43;100680.75;;;7.09;100.00
53546;BME280;39432;51.902;10.844;2023-04-19T00:37:13;100694.13;;;6.98;100.00
53546;BME280;39432;51.902;10.844;2023-04-19T00:39:43;100676.53;;;6.87;99.07
53546;BME280;39432;51.902;10.844;2023-04-19T00:42:15;100674.44;;;6.89;97.94
53546;BME280;39432;51.902;10.844;2023-04-19T00:44:46;100671.88;;;6.81;97.89
53546;BME280;39432;51.902;10.844;2023-04-19T00:47:16;100675.41;;;6.62;97.66
53546;BME280;39432;51.902;10.844;2023-04-19T00:49:45;100677.28;;;6.54;98.75
53546;BME280;39432;51.902;10.844;2023-04-19T00:52:15;100675.22;;;6.70;99.18
53546;BME280;39432;51.902;10.844;2023-04-19T00:54:45;100678.53;;;6.58;99.64
53546;BME280;39432;51.902;10.844;2023-04-19T00:57:17;100684.88;;;6.79;98.48
53546;BME280;39432;51.902;10.844;2023-04-19T00:59:49;100687.94;;;6.49;98.33
53546;BME280;39432;51.902;10.844;2023-04-19T01:02:19;100686.09;;;6.70;98.52
53546;BME280;39432;51.902;10.844;2023-04-19T01:04:49;100687.56;;;6.66;97.35
53546;BME280;39432;51.902;10.844;2023-04-19T01:07:19;100690.69;;;6.69;97.38
53546;BME280;39432;51.902;10.844;2023-04-19T01:09:50;100693.25;;;6.97;96.80
53546;BME280;39432;51.902;10.844;2023-04-19T01:12:23;100682.81;;;6.88;96.04
53546;BME280;39432;51.902;10.844;2023-04-19T01:14:52;100688.25;;;7.07;95.49
53546;BME280;39432;51.902;10.844;2023-04-19T01:17:22;100686.88;;;6.44;97.14
53546;BME280;39432;51.902;10.844;2023-04-19T01:19:58;100686.41;;;6.27;99.65
53546;BME280;39432;51.902;10.844;2023-04-19T01:22:31;100694.00;;;6.51;100.00
53546;BME280;39432;51.902;10.844;2023-04-19T01:25:05;100687.28;;;6.47;100.00
53546;BME280;39432;51.902;10.844;2023-04-19T01:27:35;100683.47;;;6.35;100.00
53546;BME280;39432;51.902;10.844;2023-04-19T01:30:06;100685.00;;;6.03;100.00
53546;BME280;39432;51.902;10.844;2023-04-19T01:32:36;100681.72;;;6.14;100.00
53546;BME280;39432;51.902;10.844;2023-04-19T01:35:07;100679.56;;;5.96;100.00
53546;BME280;39432;51.902;10.844;2023-04-19T01:37:39;100680.72;;;5.87;100.00
53546;BME280;39432;51.902;10.844;2023-04-19T01:40:10;100686.22;;;5.66;100.00
53546;BME280;39432;51.902;10.844;2023-04-19T01:42:40;100677.53;;;5.77;100.00
53546;BME280;39432;51.902;10.844;2023-04-19T01:45:10;100686.53;;;5.77;100.00
53546;BME280;39432;51.902;10.844;2023-04-19T01:47:39;100678.06;;;5.66;100.00
53546;BME280;39432;51.902;10.844;2023-04-19T01:50:09;100680.13;;;5.57;100.00
53546;BME280;39432;51.902;10.844;2023-04-19T01:52:43;100687.84;;;5.88;100.00
53546;BME280;39432;51.902;10.844;2023-04-19T01:55:13;100678.75;;;6.02;100.00
53546;BME280;39432;51.902;10.844;2023-04-19T01:57:43;100677.75;;;5.82;100.00
53546;BME280;39432;51.902;10.844;2023-04-19T02:00:13;100674.16;;;5.75;100.00
53546;BME280;39432;51.902;10.844;2023-04-19T02:02:45;100675.28;;;5.87;100.00
53546;BME280;39432;51.902;10.844;2023-04-19T02:05:16;100676.25;;;6.07;100.00
53546;BME280;39432;51.902;10.844;2023-04-19T02:07:48;100675.06;;;6.17;100.00
53546;BME280;39432;51.902;10.844;2023-04-19T02:10:19;100669.69;;;6.37;100.00
53546;BME280;39432;51.902;10.844;2023-04-19T02:12:49;100670.94;;;6.34;100.00
53546;BME280;39432;51.902;10.844;2023-04-19T02:15:19;100673.03;;;6.32;100.00
53546;BME280;39432;51.902;10.844;2023-04-19T02:17:49;100674.63;;;6.13;100.00
53546;BME280;39432;51.902;10.844;2023-04-19T02:20:19;100672.09;;;6.12;100.00
53546;BME280;39432;51.902;10.844;2023-04-19T02:22:52;100675.88;;;6.11;100.00
53546;BME280;39432;51.902;10.844;2023-04-19T02:25:22;100664.09;;;5.97;100.00
53546;BME280;39432;51.902;10.844;2023-04-19T02:27:51;100669.72;;;6.43;100.00
53546;BME280;39432;51.902;10.844;2023-04-19T02:30:22;100671.56;;;5.88;100.00
53546;BME280;39432;51.902;10.844;2023-04-19T02:32:51;100673.06;;;6.39;100.00
53546;BME280;39432;51.902;10.844;2023-04-19T02:35:21;100673.13;;;5.76;100.00
53546;BME280;39432;51.902;10.844;2023-04-19T02:37:54;100672.69;;;6.55;100.00
53546;BME280;39432;51.902;10.844;2023-04-19T02:40:25;100680.41;;;6.03;100.00
53546;BME280;39432;51.902;10.844;2023-04-19T02:42:57;100674.72;;;6.40;100.00
53546;BME280;39432;51.902;10.844;2023-04-19T02:45:27;100673.91;;;6.52;100.00
53546;BME280;39432;51.902;10.844;2023-04-19T02:47:57;100676.31;;;6.21;100.00
53546;BME280;39432;51.902;10.844;2023-04-19T02:50:27;100674.50;;;5.93;100.00
53546;BME280;39432;51.902;10.844;2023-04-19T02:52:59;100665.75;;;6.52;100.00
53546;BME280;39432;51.902;10.844;2023-04-19T02:55:30;100666.84;;;6.65;100.00
53546;BME280;39432;51.902;10.844;2023-04-19T02:58:05;100673.94;;;5.70;100.00
53546;BME280;39432;51.902;10.844;2023-04-19T03:00:41;100669.16;;;6.06;100.00
53546;BME280;39432;51.902;10.844;2023-04-19T03:03:14;100663.38;;;5.53;100.00
53546;BME280;39432;51.902;10.844;2023-04-19T03:05:44;100661.78;;;5.66;100.00
53546;BME280;39432;51.902;10.844;2023-04-19T03:08:16;100665.25;;;5.88;100.00
53546;BME280;39432;51.902;10.844;2023-04-19T03:10:46;100664.75;;;5.99;100.00
53546;BME280;39432;51.902;10.844;2023-04-19T03:13:16;100656.34;;;5.66;100.00
53546;BME280;39432;51.902;10.844;2023-04-19T03:15:46;100661.47;;;5.47;100.00
53546;BME280;39432;51.902;10.844;2023-04-19T03:18:20;100660.41;;;5.48;100.00
53546;BME280;39432;51.902;10.844;2023-04-19T03:20:52;100655.72;;;5.64;100.00
53546;BME280;39432;51.902;10.844;2023-04-19T03:23:24;100660.31;;;6.39;100.00
53546;BME280;39432;51.902;10.844;2023-04-19T03:25:56;100656.72;;;6.32;100.00
53546;BME280;39432;51.902;10.844;2023-04-19T03:28:44;100645.44;;;6.35;100.00
53546;BME280;39432;51.902;10.844;2023-04-19T03:31:35;100648.34;;;6.27;100.00
53546;BME280;39432;51.902;10.844;2023-04-19T03:34:08;100640.91;;;6.55;100.00
53546;BME280;39432;51.902;10.844;2023-04-19T03:36:41;100638.19;;;6.55;100.00
53546;BME280;39432;51.902;10.844;2023-04-19T03:39:14;100637.41;;;6.07;100.00
53546;BME280;39432;51.902;10.844;2023-04-19T03:41:46;100634.25;;;5.69;100.00
53546;BME280;39432;51.902;10.844;2023-04-19T03:44:37;100634.16;;;6.38;100.00
53546;BME280;39432;51.902;10.844;2023-04-19T03:47:08;100628.50;;;6.33;100.00
53546;BME280;39432;51.902;10.844;2023-04-19T03:49:42;100635.00;;;6.32;100.00
53546;BME280;39432;51.902;10.844;2023-04-19T03:52:12;100629.97;;;6.36;100.00
53546;BME280;39432;51.902;10.844;2023-04-19T03:54:44;100622.00;;;6.27;100.00
53546;BME280;39432;51.902;10.844;2023-04-19T03:57:36;100629.97;;;6.42;100.00
53546;BME280;39432;51.902;10.844;2023-04-19T04:00:20;100632.16;;;5.36;100.00
53546;BME280;39432;51.902;10.844;2023-04-19T04:02:55;100630.53;;;6.18;100.00
53546;BME280;39432;51.902;10.844;2023-04-19T04:05:26;100638.97;;;5.88;100.00
53546;BME280;39432;51.902;10.844;2023-04-19T04:07:56;100638.91;;;5.81;100.00
53546;BME280;39432;51.902;10.844;2023-04-19T04:10:28;100643.00;;;5.71;100.00
53546;BME280;39432;51.902;10.844;2023-04-19T04:12:59;100644.16;;;5.83;100.00
53546;BME280;39432;51.902;10.844;2023-04-19T04:15:39;100639.13;;;5.45;100.00
53546;BME280;39432;51.902;10.844;2023-04-19T04:18:11;100641.56;;;5.68;100.00
53546;BME280;39432;51.902;10.844;2023-04-19T04:20:42;100641.38;;;5.14;100.00
53546;BME280;39432;51.902;10.844;2023-04-19T04:23:12;100646.34;;;5.10;100.00
53546;BME280;39432;51.902;10.844;2023-04-19T04:25:55;100642.91;;;5.51;100.00
53546;BME280;39432;51.902;10.844;2023-04-19T04:28:27;100641.63;;;5.47;100.00
53546;BME280;39432;51.902;10.844;2023-04-19T04:30:58;100649.13;;;5.45;100.00
53546;BME280;39432;51.902;10.844;2023-04-19T04:33:31;100642.47;;;5.47;100.00
53546;BME280;39432;51.902;10.844;2023-04-19T04:36:02;100635.44;;;5.60;100.00
53546;BME280;39432;51.902;10.844;2023-04-19T04:38:35;100639.28;;;5.72;100.00
53546;BME280;39432;51.902;10.844;2023-04-19T04:41:07;100642.88;;;5.44;100.00
53546;BME280;39432;51.902;10.844;2023-04-19T04:43:37;100642.03;;;4.94;100.00
53546;BME280;39432;51.902;10.844;2023-04-19T04:46:08;100645.19;;;5.47;100.00
53546;BME280;39432;51.902;10.844;2023-04-19T04:48:40;100634.31;;;6.17;100.00
53546;BME280;39432;51.902;10.844;2023-04-19T04:51:10;100639.44;;;6.59;100.00
53546;BME280;39432;51.902;10.844;2023-04-19T04:53:42;100637.34;;;6.68;100.00
53546;BME280;39432;51.902;10.844;2023-04-19T04:56:15;100641.16;;;7.07;100.00
53546;BME280;39432;51.902;10.844;2023-04-19T04:58:45;100633.72;;;7.87;100.00
53546;BME280;39432;51.902;10.844;2023-04-19T05:01:24;100646.00;;;7.31;100.00
53546;BME280;39432;51.902;10.844;2023-04-19T05:03:54;100634.13;;;7.90;100.00
53546;BME280;39432;51.902;10.844;2023-04-19T05:06:23;100638.63;;;8.61;96.23
53546;BME280;39432;51.902;10.844;2023-04-19T05:08:53;100629.50;;;7.91;92.63
53546;BME280;39432;51.902;10.844;2023-04-19T05:11:32;100641.72;;;7.69;97.56
53546;BME280;39432;51.902;10.844;2023-04-19T05:14:03;100638.75;;;7.83;97.12
53546;BME280;39432;51.902;10.844;2023-04-19T05:16:33;100643.47;;;7.03;97.07
53546;BME280;39432;51.902;10.844;2023-04-19T05:19:03;100637.59;;;7.13;100.00
53546;BME280;39432;51.902;10.844;2023-04-19T05:21:38;100641.66;;;8.85;99.19
53546;BME280;39432;51.902;10.844;2023-04-19T05:24:09;100636.19;;;8.53;95.37
53546;BME280;39432;51.902;10.844;2023-04-19T05:26:42;100640.50;;;7.64;94.31
53546;BME280;39432;51.902;10.844;2023-04-19T05:29:12;100634.69;;;8.57;98.73
53546;BME280;39432;51.902;10.844;2023-04-19T05:31:50;100632.16;;;9.62;92.02
53546;BME280;39432;51.902;10.844;2023-04-19T05:34:23;100643.94;;;9.38;85.61
53546;BME280;39432;51.902;10.844;2023-04-19T05:36:55;100634.97;;;9.31;88.46
53546;BME280;39432;51.902;10.844;2023-04-19T05:39:25;100640.09;;;9.45;87.79
53546;BME280;39432;51.902;10.844;2023-04-19T05:41:59;100637.78;;;9.86;87.13
53546;BME280;39432;51.902;10.844;2023-04-19T05:44:29;100634.97;;;8.81;86.32
53546;BME280;39432;51.902;10.844;2023-04-19T05:46:59;100629.91;;;9.09;92.72
53546;BME280;39432;51.902;10.844;2023-04-19T05:49:49;100626.28;;;9.40;86.43
53546;BME280;39432;51.902;10.844;2023-04-19T05:52:25;100631.66;;;9.29;86.71
53546;BME280;39432;51.902;10.844;2023-04-19T05:54:57;100620.47;;;9.92;84.53
53546;BME280;39432;51.902;10.844;2023-04-19T05:57:30;100616.94;;;8.73;83.53
53546;BME280;39432;51.902;10.844;2023-04-19T06:00:00;100623.59;;;8.84;87.06
53546;BME280;39432;51.902;10.844;2023-04-19T06:02:39;100612.41;;;10.64;82.53
53546;BME280;39432;51.902;10.844;2023-04-19T06:05:12;100619.53;;;9.43;81.00
53546;BME280;39432;51.902;10.844;2023-04-19T06:07:42;100624.72;;;9.69;83.23
53546;BME280;39432;51.902;10.844;2023-04-19T06:10:21;100616.66;;;9.93;80.74
53546;BME280;39432;51.902;10.844;2023-04-19T06:13:05;100625.47;;;9.76;81.49
53546;BME280;39432;51.902;10.844;2023-04-19T06:15:35;100625.22;;;10.51;79.22
53546;BME280;39432;51.902;10.844;2023-04-19T06:18:06;100628.91;;;8.34;80.23
53546;BME280;39432;51.902;10.844;2023-04-19T06:20:45;100631.31;;;8.10;87.08
53546;BME280;39432;51.902;10.844;2023-04-19T06:23:15;100629.88;;;8.01;91.87
53546;BME280;39432;51.902;10.844;2023-04-19T06:25:45;100621.88;;;8.89;90.41
53546;BME280;39432;51.902;10.844;2023-04-19T06:28:18;100623.00;;;9.07;86.40
53546;BME280;39432;51.902;10.844;2023-04-19T06:30:48;100619.09;;;10.19;85.51
53546;BME280;39432;51.902;10.844;2023-04-19T06:33:18;100638.78;;;8.28;85.18
53546;BME280;39432;51.902;10.844;2023-04-19T06:35:47;100624.31;;;8.41;91.66
53546;BME280;39432;51.902;10.844;2023-04-19T06:38:17;100626.13;;;8.79;90.80
53546;BME280;39432;51.902;10.844;2023-04-19T06:40:47;100629.16;;;8.70;92.23
53546;BME280;39432;51.902;10.844;2023-04-19T06:43:19;100625.00;;;8.61;92.47
53546;BME280;39432;51.902;10.844;2023-04-19T06:45:56;100624.78;;;9.19;90.41
53546;BME280;39432;51.902;10.844;2023-04-19T06:48:26;100622.72;;;9.40;89.21
53546;BME280;39432;51.902;10.844;2023-04-19T06:50:56;100615.56;;;9.39;89.91
53546;BME280;39432;51.902;10.844;2023-04-19T06:53:26;100622.75;;;10.13;84.91
53546;BME280;39432;51.902;10.844;2023-04-19T06:55:57;100615.34;;;11.04;82.03
53546;BME280;39432;51.902;10.844;2023-04-19T06:58:31;100607.13;;;8.97;82.59
53546;BME280;39432;51.902;10.844;2023-04-19T07:01:02;100608.53;;;7.98;89.22
53546;BME280;39432;51.902;10.844;2023-04-19T07:03:32;100609.94;;;7.43;95.88
53546;BME280;39432;51.902;10.844;2023-04-19T07:06:03;100605.88;;;8.36;95.30
53546;BME280;39432;51.902;10.844;2023-04-19T07:08:32;100599.91;;;7.36;93.72
53546;BME280;39432;51.902;10.844;2023-04-19T07:11:16;100598.03;;;8.02;94.50
53546;BME280;39432;51.902;10.844;2023-04-19T07:13:50;100591.66;;;8.59;92.49
53546;BME280;39432;51.902;10.844;2023-04-19T07:16:20;100604.34;;;8.02;94.91
53546;BME280;39432;51.902;10.844;2023-04-19T07:18:50;100604.34;;;7.96;96.57
53546;BME280;39432;51.902;10.844;2023-04-19T07:21:20;100605.94;;;8.16;94.62
53546;BME280;39432;51.902;10.844;2023-04-19T07:23:51;100596.34;;;8.52;92.63
53546;BME280;39432;51.902;10.844;2023-04-19T07:26:20;100593.97;;;8.17;93.96
53546;BME280;39432;51.902;10.844;2023-04-19T07:28:53;100589.34;;;8.63;92.91
53546;BME280;39432;51.902;10.844;2023-04-19T07:31:23;100587.09;;;8.08;93.96
53546;BME280;39432;51.902;10.844;2023-04-19T07:33:53;100583.59;;;8.46;95.20
53546;BME280;39432;51.902;10.844;2023-04-19T07:36:23;100583.69;;;8.19;93.78
53546;BME280;39432;51.902;10.844;2023-04-19T07:38:52;100580.56;;;7.64;97.53
53546;BME280;39432;51.902;10.844;2023-04-19T07:41:22;100576.72;;;9.55;94.52
53546;BME280;39432;51.902;10.844;2023-04-19T07:43:54;100577.03;;;9.65;89.87
53546;BME280;39432;51.902;10.844;2023-04-19T07:46:24;100582.00;;;9.57;86.35
53546;BME280;39432;51.902;10.844;2023-04-19T07:48:54;100580.19;;;9.26;87.45
53546;BME280;39432;51.902;10.844;2023-04-19T07:51:23;100580.22;;;9.44;84.37
53546;BME280;39432;51.902;10.844;2023-04-19T07:53:53;100571.47;;;8.92;84.60
53546;BME280;39432;51.902;10.844;2023-04-19T07:56:23;100578.28;;;9.69;84.52
53546;BME280;39432;51.902;10.844;2023-04-19T07:58:56;100564.38;;;10.19;79.83
53546;BME280;39432;51.902;10.844;2023-04-19T08:01:34;100561.88;;;9.69;79.34
53546;BME280;39432;51.902;10.844;2023-04-19T08:04:04;100555.88;;;10.69;76.23
53546;BME280;39432;51.902;10.844;2023-04-19T08:06:36;100559.88;;;9.95;75.16
53546;BME280;39432;51.902;10.844;2023-04-19T08:09:06;100563.09;;;10.22;72.50
53546;BME280;39432;51.902;10.844;2023-04-19T08:11:36;100556.56;;;9.74;72.32
53546;BME280;39432;51.902;10.844;2023-04-19T08:14:08;100547.81;;;10.74;72.40
53546;BME280;39432;51.902;10.844;2023-04-19T08:16:56;100552.13;;;11.29;73.50
53546;BME280;39432;51.902;10.844;2023-04-19T08:19:29;100550.72;;;9.53;73.40
53546;BME280;39432;51.902;10.844;2023-04-19T08:21:58;100548.88;;;10.32;73.92
53546;BME280;39432;51.902;10.844;2023-04-19T08:24:30;100545.09;;;9.47;73.85
53546;BME280;39432;51.902;10.844;2023-04-19T08:26:59;100548.41;;;8.88;76.32
53546;BME280;39432;51.902;10.844;2023-04-19T08:29:32;100535.44;;;9.27;76.80
53546;BME280;39432;51.902;10.844;2023-04-19T08:32:01;100540.00;;;9.69;76.64
53546;BME280;39432;51.902;10.844;2023-04-19T08:34:33;100541.34;;;9.97;76.94
53546;BME280;39432;51.902;10.844;2023-04-19T08:37:03;100539.50;;;9.17;76.50
53546;BME280;39432;51.902;10.844;2023-04-19T08:39:33;100539.75;;;9.16;78.45
53546;BME280;39432;51.902;10.844;2023-04-19T08:42:05;100533.34;;;9.29;77.83
53546;BME280;39432;51.902;10.844;2023-04-19T08:44:59;100524.94;;;9.97;77.19
53546;BME280;39432;51.902;10.844;2023-04-19T08:47:35;100526.09;;;10.19;76.56
53546;BME280;39432;51.902;10.844;2023-04-19T08:50:24;100510.97;;;10.35;75.00
53546;BME280;39432;51.902;10.844;2023-04-19T08:52:58;100516.78;;;9.42;75.76
53546;BME280;39432;51.902;10.844;2023-04-19T08:55:46;100507.06;;;9.09;74.05
53546;BME280;39432;51.902;10.844;2023-04-19T08:58:37;100506.78;;;10.02;73.84
53546;BME280;39432;51.902;10.844;2023-04-19T09:01:29;100504.63;;;10.04;70.87
53546;BME280;39432;51.902;10.844;2023-04-19T09:04:03;100500.84;;;9.39;69.55
53546;BME280;39432;51.902;10.844;2023-04-19T09:06:37;100488.25;;;10.35;70.83
53546;BME280;39432;51.902;10.844;2023-04-19T09:09:15;100496.59;;;9.43;69.17
53546;BME280;39432;51.902;10.844;2023-04-19T09:12:03;100484.47;;;9.39;69.63
53546;BME280;39432;51.902;10.844;2023-04-19T09:14:45;100483.00;;;10.03;70.27
53546;BME280;39432;51.902;10.844;2023-04-19T09:17:32;100473.97;;;9.72;67.93
53546;BME280;39432;51.902;10.844;2023-04-19T09:20:03;100479.81;;;9.76;66.50
53546;BME280;39432;51.902;10.844;2023-04-19T09:22:34;100481.06;;;9.62;66.42
53546;BME280;39432;51.902;10.844;2023-04-19T09:25:05;100465.16;;;9.70;64.96
53546;BME280;39432;51.902;10.844;2023-04-19T09:27:38;100474.88;;;9.66;65.19
53546;BME280;39432;51.902;10.844;2023-04-19T09:30:08;100465.78;;;9.54;65.20
53546;BME280;39432;51.902;10.844;2023-04-19T09:32:52;100459.41;;;9.79;65.45
53546;BME280;39432;51.902;10.844;2023-04-19T09:35:38;100460.63;;;10.24;65.23
53546;BME280;39432;51.902;10.844;2023-04-19T09:38:08;100460.72;;;9.88;64.18
53546;BME280;39432;51.902;10.844;2023-04-19T09:40:39;100466.38;;;9.74;64.13
53546;BME280;39432;51.902;10.844;2023-04-19T09:43:09;100456.13;;;10.42;64.14
53546;BME280;39432;51.902;10.844;2023-04-19T09:45:59;100444.03;;;10.61;63.05
53546;BME280;39432;51.902;10.844;2023-04-19T09:48:32;100448.03;;;10.05;62.93
53546;BME280;39432;51.902;10.844;2023-04-19T09:51:03;100443.31;;;10.00;61.58
53546;BME280;39432;51.902;10.844;2023-04-19T09:53:39;100447.63;;;10.20;62.34
53546;BME280;39432;51.902;10.844;2023-04-19T09:56:09;100426.41;;;10.80;61.52
53546;BME280;39432;51.902;10.844;2023-04-19T09:58:39;100431.63;;;10.23;60.50
53546;BME280;39432;51.902;10.844;2023-04-19T10:01:23;100436.72;;;10.32;61.70
53546;BME280;39432;51.902;10.844;2023-04-19T10:03:57;100428.81;;;10.00;60.53
53546;BME280;39432;51.902;10.844;2023-04-19T10:06:48;100430.69;;;10.29;60.32
53546;BME280;39432;51.902;10.844;2023-04-19T10:09:38;100429.31;;;10.20;59.84
53546;BME280;39432;51.902;10.844;2023-04-19T10:12:19;100413.53;;;10.22;59.27
53546;BME280;39432;51.902;10.844;2023-04-19T10:15:10;100407.97;;;10.64;59.38
53546;BME280;39432;51.902;10.844;2023-04-19T10:17:42;100397.84;;;10.76;59.42
53546;BME280;39432;51.902;10.844;2023-04-19T10:20:19;100411.69;;;10.04;58.44
53546;BME280;39432;51.902;10.844;2023-04-19T10:22:51;100407.13;;;10.28;57.90
53546;BME280;39432;51.902;10.844;2023-04-19T10:25:27;100394.16;;;10.47;56.63
53546;BME280;39432;51.902;10.844;2023-04-19T10:27:58;100389.19;;;10.68;57.46
53546;BME280;39432;51.902;10.844;2023-04-19T10:30:27;100410.44;;;11.01;58.48
53546;BME280;39432;51.902;10.844;2023-04-19T10:32:58;100397.16;;;10.69;57.55
53546;BME280;39432;51.902;10.844;2023-04-19T10:35:36;100385.97;;;10.59;55.30
53546;BME280;39432;51.902;10.844;2023-04-19T10:38:07;100400.69;;;11.05;54.64
53546;BME280;39432;51.902;10.844;2023-04-19T10:40:56;100392.09;;;11.13;53.17
53546;BME280;39432;51.902;10.844;2023-04-19T10:43:27;100378.94;;;10.75;52.48
53546;BME280;39432;51.902;10.844;2023-04-19T10:46:00;100371.16;;;11.07;53.00
53546;BME280;39432;51.902;10.844;2023-04-19T10:48:38;100383.13;;;10.77;51.29
53546;BME280;39432;51.902;10.844;2023-04-19T10:51:16;100372.25;;;10.94;51.63
53546;BME280;39432;51.902;10.844;2023-04-19T10:53:49;100378.78;;;10.93;51.43
53546;BME280;39432;51.902;10.844;2023-04-19T10:56:21;100374.56;;;10.62;51.81
53546;BME280;39432;51.902;10.844;2023-04-19T10:59:13;100363.72;;;10.67;53.19
53546;BME280;39432;51.902;10.844;2023-04-19T11:01:53;100361.06;;;10.84;53.08
53546;BME280;39432;51.902;10.844;2023-04-19T11:07:44;100359.94;;;11.49;53.68
53546;BME280;39432;51.902;10.844;2023-04-19T11:10:26;100339.06;;;11.76;51.66
53546;BME280;39432;51.902;10.844;2023-04-19T11:12:57;100307.75;;;12.06;51.73
53546;BME280;39432;51.902;10.844;2023-04-19T11:15:27;100330.69;;;11.38;51.48
53546;BME280;39432;51.902;10.844;2023-04-19T11:17:57;100323.75;;;11.06;51.60
53546;BME280;39432;51.902;10.844;2023-04-19T11:20:41;100305.22;;;11.54;52.35
53546;BME280;39432;51.902;10.844;2023-04-19T11:23:17;100309.03;;;10.96;50.52
53546;BME280;39432;51.902;10.844;2023-04-19T11:25:49;100308.66;;;10.92;51.55
53546;BME280;39432;51.902;10.844;2023-04-19T11:28:20;100304.44;;;11.13;50.58
53546;BME280;39432;51.902;10.844;2023-04-19T11:30:51;100304.13;;;10.98;49.89
53546;BME280;39432;51.902;10.844;2023-04-19T11:33:22;100306.03;;;11.26;50.21
53546;BME280;39432;51.902;10.844;2023-04-19T11:35:53;100294.94;;;11.04;49.36
53546;BME280;39432;51.902;10.844;2023-04-19T11:38:26;100284.53;;;11.63;49.05
53546;BME280;39432;51.902;10.844;2023-04-19T11:40:59;100279.28;;;11.45;48.11
53546;BME280;39432;51.902;10.844;2023-04-19T11:43:32;100286.75;;;11.95;47.54
53546;BME280;39432;51.902;10.844;2023-04-19T11:46:06;100285.56;;;11.28;46.93
53546;BME280;39432;51.902;10.844;2023-04-19T11:48:37;100273.44;;;11.86;46.71
53546;BME280;39432;51.902;10.844;2023-04-19T11:51:07;100266.69;;;12.11;47.46
53546;BME280;39432;51.902;10.844;2023-04-19T11:53:40;100276.50;;;11.73;47.31
53546;BME280;39432;51.902;10.844;2023-04-19T11:56:09;100285.84;;;11.44;47.48
53546;BME280;39432;51.902;10.844;2023-04-19T11:58:42;100273.75;;;11.11;46.92
53546;BME280;39432;51.902;10.844;2023-04-19T12:01:18;100278.66;;;11.54;47.07
53546;BME280;39432;51.902;10.844;2023-04-19T12:03:49;100275.41;;;11.12;46.12
53546;BME280;39432;51.902;10.844;2023-04-19T12:06:22;100282.53;;;11.13;47.07
53546;BME280;39432;51.902;10.844;2023-04-19T12:08:55;100274.59;;;11.28;47.21
53546;BME280;39432;51.902;10.844;2023-04-19T12:11:41;100264.44;;;12.08;46.86
53546;BME280;39432;51.902;10.844;2023-04-19T12:14:13;100262.88;;;12.12;46.12
53546;BME280;39432;51.902;10.844;2023-04-19T12:16:44;100264.59;;;11.51;45.99
53546;BME280;39432;51.902;10.844;2023-04-19T12:19:17;100267.19;;;12.08;47.03
53546;BME280;39432;51.902;10.844;2023-04-19T12:21:47;100273.47;;;11.58;46.98
53546;BME280;39432;51.902;10.844;2023-04-19T12:24:19;100284.28;;;11.19;47.37
53546;BME280;39432;51.902;10.844;2023-04-19T12:26:53;100270.69;;;12.20;48.17
53546;BME280;39432;51.902;10.844;2023-04-19T12:29:25;100264.38;;;12.03;47.80
53546;BME280;39432;51.902;10.844;2023-04-19T12:31:55;100257.03;;;11.75;48.76
53546;BME280;39432;51.902;10.844;2023-04-19T12:34:25;100257.88;;;11.75;49.47
53546;BME280;39432;51.902;10.844;2023-04-19T12:36:55;100251.38;;;11.48;48.71
53546;BME280;39432;51.902;10.844;2023-04-19T12:39:27;100246.06;;;11.58;48.64
53546;BME280;39432;51.902;10.844;2023-04-19T12:41:57;100240.28;;;11.71;48.31
53546;BME280;39432;51.902;10.844;2023-04-19T12:44:27;100238.69;;;11.75;47.91
53546;BME280;39432;51.902;10.844;2023-04-19T12:46:57;100224.31;;;11.68;47.62
53546;BME280;39432;51.902;10.844;2023-04-19T12:49:26;100230.25;;;12.32;47.13
53546;BME280;39432;51.902;10.844;2023-04-19T12:51:56;100221.56;;;12.02;47.52
53546;BME280;39432;51.902;10.844;2023-04-19T12:54:29;100227.28;;;12.17;47.91
53546;BME280;39432;51.902;10.844;2023-04-19T12:56:58;100250.59;;;11.98;47.78
53546;BME280;39432;51.902;10.844;2023-04-19T12:59:29;100207.88;;;11.68;47.30
53546;BME280;39432;51.902;10.844;2023-04-19T13:01:59;100208.03;;;12.56;47.50
53546;BME280;39432;51.902;10.844;2023-04-19T13:04:29;100219.78;;;12.73;47.77
53546;BME280;39432;51.902;10.844;2023-04-19T13:06:59;100212.84;;;12.05;47.38
53546;BME280;39432;51.902;10.844;2023-04-19T13:09:31;100212.88;;;11.88;46.81
53546;BME280;39432;51.902;10.844;2023-04-19T13:12:01;100203.03;;;11.75;47.56
53546;BME280;39432;51.902;10.844;2023-04-19T13:14:31;100208.22;;;11.55;49.92
53546;BME280;39432;51.902;10.844;2023-04-19T13:17:01;100202.44;;;11.06;50.88